createdAt,value
2019-05-12T00:02:39.658Z,83.10
2019-05-12T00:05:43.880Z,83.20
2019-05-12T00:08:48.839Z,83.40
2019-05-12T00:11:55.635Z,83.90
2019-05-12T00:15:00.005Z,84.20
2019-05-12T00:18:04.539Z,84.80
2019-05-12T00:21:08.959Z,85.20
2019-05-12T00:24:13.379Z,85.80
2019-05-12T00:27:19.627Z,85.90
2019-05-12T00:30:45.883Z,85.90
2019-05-12T00:33:50.161Z,86.30
2019-05-12T00:36:55.259Z,86.60
2019-05-12T00:39:59.806Z,86.80
2019-05-12T00:43:05.078Z,87.40
2019-05-12T00:46:10.196Z,88.20
2019-05-12T00:49:15.160Z,87.10
2019-05-12T00:52:20.063Z,87.30
2019-05-12T00:55:25.228Z,87.20
2019-05-12T00:58:29.591Z,87.50
2019-05-12T01:01:35.127Z,87.60
2019-05-12T01:04:39.489Z,87.80
2019-05-12T01:07:43.874Z,87.80
2019-05-12T01:10:49.039Z,88.00
2019-05-12T01:13:54.152Z,87.80
2019-05-12T01:16:58.496Z,88.10
2019-05-12T01:20:03.119Z,88.10
2019-05-12T01:23:09.894Z,88.20
2019-05-12T01:26:14.943Z,88.30
2019-05-12T01:29:19.335Z,88.30
2019-05-12T01:32:34.095Z,88.40
2019-05-12T01:35:39.816Z,88.60
2019-05-12T01:38:44.905Z,88.40
2019-05-12T01:41:49.963Z,88.80
2019-05-12T01:44:55.158Z,88.90
2019-05-12T01:47:59.559Z,89.00
2019-05-12T01:51:04.202Z,89.30
2019-05-12T01:54:14.694Z,89.40
2019-05-12T01:57:14.720Z,89.70
2019-05-12T02:00:19.274Z,89.40
2019-05-12T02:03:24.363Z,89.70
2019-05-12T02:06:28.851Z,90.20
2019-05-12T02:09:35.250Z,89.90
2019-05-12T02:12:39.971Z,90.00
2019-05-12T02:15:45.206Z,90.10
2019-05-12T02:18:50.084Z,90.10
2019-05-12T02:21:55.215Z,89.90
2019-05-12T02:24:59.587Z,90.10
2019-05-12T02:28:03.966Z,90.00
2019-05-12T02:31:09.633Z,90.20
2019-05-12T02:34:15.799Z,90.20
2019-05-12T02:37:20.990Z,90.30
2019-05-12T02:40:25.681Z,90.30
2019-05-12T02:43:34.633Z,90.30
2019-05-12T02:46:37.607Z,90.40
2019-05-12T02:49:44.776Z,90.50
2019-05-12T02:52:48.205Z,90.40
2019-05-12T02:55:54.338Z,90.40
2019-05-12T02:59:05.058Z,90.40
2019-05-12T03:02:09.944Z,90.40
2019-05-12T03:05:14.966Z,90.50
2019-05-12T03:08:25.684Z,90.50
2019-05-12T03:11:29.773Z,90.30
2019-05-12T03:14:40.180Z,90.40
2019-05-12T03:17:40.896Z,90.60
2019-05-12T03:20:45.643Z,90.60
2019-05-12T03:23:50.180Z,90.70
2019-05-12T03:26:55.407Z,90.80
2019-05-12T03:29:59.854Z,90.80
2019-05-12T03:33:09.644Z,90.80
2019-05-12T03:36:10.699Z,90.80
2019-05-12T03:39:15.250Z,90.80
2019-05-12T03:42:20.063Z,90.90
2019-05-12T03:45:25.183Z,91.40
2019-05-12T03:48:29.912Z,91.00
2019-05-12T03:51:35.083Z,91.20
2019-05-12T03:54:40.107Z,91.20
2019-05-12T03:57:45.201Z,91.30
2019-05-12T04:00:49.776Z,91.40
2019-05-12T04:03:54.889Z,91.30
2019-05-12T04:06:59.205Z,91.30
2019-05-12T04:10:05.291Z,91.20
2019-05-12T04:13:10.158Z,91.30
2019-05-12T04:16:16.464Z,91.50
2019-05-12T04:19:20.743Z,91.50
2019-05-12T04:22:25.125Z,91.40
2019-05-12T04:25:46.253Z,91.40
2019-05-12T04:28:35.487Z,91.50
2019-05-12T04:31:39.886Z,91.50
2019-05-12T04:34:44.795Z,91.50
2019-05-12T04:37:49.304Z,91.60
2019-05-12T04:40:55.341Z,91.50
2019-05-12T04:47:25.314Z,91.40
2019-05-12T04:50:29.458Z,91.30
2019-05-12T04:53:35.196Z,91.40
2019-05-12T04:56:39.840Z,91.30
2019-05-12T04:59:45.113Z,91.40
2019-05-12T05:02:49.755Z,91.30
2019-05-12T05:05:54.909Z,91.30
2019-05-12T05:08:59.611Z,91.30
2019-05-12T05:12:04.670Z,91.30
2019-05-12T05:15:09.528Z,91.30
2019-05-12T05:18:13.924Z,91.20
2019-05-12T05:21:18.311Z,91.20
2019-05-12T05:24:23.529Z,91.20
2019-05-12T05:27:29.023Z,91.10
2019-05-12T05:30:34.298Z,91.10
2019-05-12T05:33:38.881Z,91.00
2019-05-12T05:36:43.463Z,91.10
2019-05-12T05:39:49.722Z,91.10
2019-05-12T05:42:54.321Z,91.00
2019-05-12T05:46:02.644Z,91.10
2019-05-12T05:49:05.047Z,91.10
2019-05-12T05:52:09.462Z,91.00
2019-05-12T05:55:19.965Z,90.90
2019-05-12T05:58:21.044Z,90.90
2019-05-12T06:01:25.481Z,90.80
2019-05-12T06:04:30.159Z,90.70
2019-05-12T06:07:38.906Z,90.50
2019-05-12T06:10:40.743Z,90.40
2019-05-12T06:13:45.159Z,90.40
2019-05-12T06:16:49.609Z,90.30
2019-05-12T06:19:54.555Z,90.40
2019-05-12T06:22:59.022Z,90.30
2019-05-12T06:26:04.645Z,90.10
2019-05-12T06:29:11.446Z,90.10
2019-05-12T06:32:15.657Z,89.60
2019-05-12T06:35:20.144Z,89.60
2019-05-12T06:38:31.082Z,89.30
2019-05-12T06:41:34.722Z,89.30
2019-05-12T06:44:39.196Z,89.10
2019-05-12T06:47:49.541Z,89.30
2019-05-12T06:50:53.390Z,89.30
2019-05-12T06:54:00.823Z,89.40
2019-05-12T06:57:18.771Z,89.10
2019-05-12T07:00:10.209Z,89.70
2019-05-12T07:03:19.569Z,89.20
2019-05-12T07:06:21.031Z,89.00
2019-05-12T07:09:28.728Z,88.30
2019-05-12T07:12:39.661Z,88.10
2019-05-12T07:15:40.565Z,87.50
2019-05-12T07:18:46.499Z,87.00
2019-05-12T07:21:58.238Z,86.50
2019-05-12T07:24:58.934Z,86.10
2019-05-12T07:28:07.661Z,85.80
2019-05-12T07:31:10.053Z,85.30
2019-05-12T07:34:14.595Z,84.50
2019-05-12T07:37:20.791Z,84.50
2019-05-12T07:40:30.067Z,82.60
2019-05-12T07:43:33.911Z,83.10
2019-05-12T07:46:39.584Z,83.10
2019-05-12T07:49:45.068Z,83.40
2019-05-12T07:52:49.646Z,82.00
2019-05-12T07:55:54.056Z,81.30
2019-05-12T07:58:58.578Z,80.50
2019-05-12T08:02:03.958Z,80.10
2019-05-12T08:05:11.017Z,80.10
2019-05-12T08:08:15.608Z,79.90
2019-05-12T08:11:20.058Z,78.90
2019-05-12T08:14:29.196Z,78.10
2019-05-12T08:17:30.792Z,77.70
2019-05-12T08:20:35.663Z,78.00
2019-05-12T08:23:41.114Z,77.90
2019-05-12T08:26:49.593Z,78.60
2019-05-12T08:30:00.995Z,77.80
2019-05-12T08:33:03.740Z,77.10
2019-05-12T08:36:14.011Z,77.00
2019-05-12T08:39:21.274Z,76.80
2019-05-12T08:42:23.974Z,76.20
2019-05-12T08:45:33.981Z,74.80
2019-05-12T08:48:36.512Z,75.20
2019-05-12T08:51:44.102Z,74.60
2019-05-12T08:54:49.532Z,74.00
2019-05-12T08:57:54.752Z,74.00
2019-05-12T09:01:00.591Z,73.20
2019-05-12T09:04:12.143Z,72.30
2019-05-12T09:07:15.604Z,72.90
2019-05-12T09:10:23.510Z,71.40
2019-05-12T09:13:27.913Z,72.00
2019-05-12T09:16:33.677Z,71.70
2019-05-12T09:19:39.886Z,71.50
2019-05-12T09:22:44.777Z,71.70
2019-05-12T09:25:50.015Z,71.30
2019-05-12T09:28:56.506Z,70.90
2019-05-12T09:32:05.438Z,70.90
2019-05-12T09:35:09.020Z,70.60
2019-05-12T09:38:21.200Z,69.50
2019-05-12T09:41:20.372Z,69.80
2019-05-12T09:44:30.394Z,70.40
2019-05-12T09:47:35.259Z,69.50
2019-05-12T09:50:40.115Z,69.30
2019-05-12T09:53:50.921Z,69.20
2019-05-12T09:56:55.334Z,69.70
2019-05-12T09:59:59.536Z,69.60
2019-05-12T10:03:08.092Z,69.80
2019-05-12T10:06:16.754Z,70.40
2019-05-12T10:09:19.777Z,71.20
2019-05-12T10:12:24.557Z,71.80
2019-05-12T10:15:29.351Z,72.50
2019-05-12T10:18:34.250Z,74.10
2019-05-12T10:21:38.982Z,74.50
2019-05-12T10:24:55.250Z,73.80
2019-05-12T10:27:53.150Z,72.80
2019-05-12T10:30:57.538Z,72.40
2019-05-12T10:34:24.017Z,70.90
2019-05-12T10:37:29.530Z,70.30
2019-05-12T10:40:34.195Z,69.50
2019-05-12T10:43:39.003Z,69.10
2019-05-12T10:46:44.424Z,68.20
2019-05-12T10:49:49.469Z,67.00
2019-05-12T10:52:53.991Z,67.10
2019-05-12T10:55:58.909Z,68.40
2019-05-12T10:59:05.070Z,69.40
2019-05-12T11:02:10.005Z,67.50
2019-05-12T11:05:21.418Z,67.70
2019-05-12T11:08:21.086Z,67.70
2019-05-12T11:11:31.976Z,67.50
2019-05-12T11:14:34.314Z,67.80
2019-05-12T11:18:13.461Z,68.70
2019-05-12T11:21:34.143Z,69.00
2019-05-12T11:24:44.625Z,68.40
2019-05-12T11:27:50.058Z,69.40
2019-05-12T11:31:13.525Z,68.30
2019-05-12T11:34:17.467Z,68.80
2019-05-12T11:37:23.123Z,68.60
2019-05-12T11:40:27.748Z,68.20
2019-05-12T11:43:33.771Z,68.30
2019-05-12T11:46:38.440Z,68.00
2019-05-12T11:49:44.145Z,67.90
2019-05-12T11:52:51.094Z,66.20
2019-05-12T11:55:55.465Z,66.40
2019-05-12T11:59:00.334Z,65.30
2019-05-12T12:02:05.113Z,65.80
2019-05-12T12:05:09.877Z,65.20
2019-05-12T12:08:14.702Z,64.10
2019-05-12T12:11:24.739Z,64.10
2019-05-12T12:14:31.590Z,64.10
2019-05-12T12:17:35.743Z,63.50
2019-05-12T12:20:40.307Z,63.90
2019-05-12T12:23:48.815Z,64.20
2019-05-12T12:26:53.622Z,65.10
2019-05-12T12:29:57.779Z,65.40
2019-05-12T12:33:04.140Z,65.60
2019-05-12T12:36:08.610Z,66.20
2019-05-12T12:39:23.651Z,65.50
2019-05-12T12:42:30.272Z,66.20
2019-05-12T12:45:53.728Z,66.20
2019-05-12T12:49:05.217Z,67.00
2019-05-12T12:52:07.442Z,67.30
2019-05-12T12:55:14.005Z,67.40
2019-05-12T12:58:21.137Z,67.80
2019-05-12T13:01:29.189Z,68.30
2019-05-12T13:04:43.082Z,68.70
2019-05-12T13:07:49.503Z,68.70
2019-05-12T13:10:55.443Z,69.50
2019-05-12T13:13:59.938Z,69.30
2019-05-12T13:17:04.433Z,69.10
2019-05-12T13:20:09.340Z,69.20
2019-05-12T13:23:14.349Z,69.70
2019-05-12T13:26:19.002Z,69.50
2019-05-12T13:29:26.365Z,69.50
2019-05-12T13:32:32.347Z,70.50
2019-05-12T13:35:35.793Z,71.10
2019-05-12T13:38:40.694Z,70.40
2019-05-12T13:41:45.231Z,70.10
2019-05-12T13:44:50.137Z,70.50
2019-05-12T13:47:57.855Z,70.40
2019-05-12T13:51:08.304Z,70.60
2019-05-12T13:54:08.343Z,70.20
2019-05-12T13:57:13.401Z,70.50
2019-05-12T14:00:18.237Z,70.80
2019-05-12T14:03:22.707Z,71.10
2019-05-12T14:06:32.170Z,70.50
2019-05-12T14:09:34.326Z,71.00
2019-05-12T14:12:49.557Z,71.60
2019-05-12T14:16:02.851Z,71.40
2019-05-12T14:19:07.203Z,71.90
2019-05-12T14:22:15.560Z,72.10
2019-05-12T14:25:20.938Z,72.50
2019-05-12T14:28:24.656Z,72.80
2019-05-12T14:31:35.147Z,73.20
2019-05-12T14:34:59.149Z,73.30
2019-05-12T14:37:59.900Z,73.80
2019-05-12T14:41:10.541Z,73.80
2019-05-12T14:44:13.568Z,73.70
2019-05-12T14:47:25.687Z,74.00
2019-05-12T14:50:25.602Z,74.20
2019-05-12T14:53:32.854Z,74.90
2019-05-12T14:56:36.534Z,75.10
2019-05-12T14:59:43.060Z,75.10
2019-05-12T15:02:47.641Z,75.10
2019-05-12T15:05:54.532Z,75.20
2019-05-12T15:08:59.923Z,76.60
2019-05-12T15:12:16.276Z,75.80
2019-05-12T15:15:40.533Z,76.30
2019-05-12T15:18:49.094Z,76.70
2019-05-12T15:21:53.724Z,76.70
2019-05-12T15:24:59.109Z,77.20
2019-05-12T15:28:04.033Z,77.80
2019-05-12T15:31:09.223Z,78.50
2019-05-12T15:34:14.398Z,79.00
2019-05-12T15:37:19.313Z,79.50
2019-05-12T15:40:23.890Z,81.40
2019-05-12T15:43:29.701Z,86.80
2019-05-12T15:46:41.259Z,90.70
2019-05-12T15:49:40.758Z,91.40
2019-05-12T15:52:46.456Z,92.30
2019-05-12T15:55:50.980Z,92.70
2019-05-12T15:58:55.804Z,93.90
2019-05-12T16:02:11.976Z,94.20
2019-05-12T16:05:10.201Z,92.90
2019-05-12T16:08:18.070Z,92.20
2019-05-12T16:11:24.411Z,91.90
2019-05-12T16:14:30.366Z,92.20
2019-05-12T16:17:36.285Z,91.80
2019-05-12T16:20:41.367Z,91.50
2019-05-12T16:23:46.258Z,91.70
2019-05-12T16:26:53.167Z,91.60
2019-05-12T16:29:58.709Z,91.90
2019-05-12T16:33:04.898Z,91.50
2019-05-12T16:36:14.270Z,91.70
2019-05-12T16:39:16.756Z,91.60
2019-05-12T16:42:23.580Z,91.70
2019-05-12T16:45:34.062Z,91.50
2019-05-12T16:48:42.109Z,91.70
2019-05-12T16:51:47.702Z,91.60
2019-05-12T16:54:54.041Z,91.90
2019-05-12T16:57:59.128Z,91.60
2019-05-12T17:01:04.090Z,91.80
2019-05-12T17:04:13.300Z,91.60
2019-05-12T17:07:20.771Z,91.50
2019-05-12T17:10:24.977Z,91.60
2019-05-12T17:13:29.494Z,91.60
2019-05-12T17:16:42.049Z,91.30
2019-05-12T17:19:43.337Z,92.00
2019-05-12T17:22:54.379Z,91.60
2019-05-12T17:25:57.349Z,91.60
2019-05-12T17:29:02.911Z,91.70
2019-05-12T17:32:08.241Z,91.60
2019-05-12T17:35:14.977Z,91.50
2019-05-12T17:38:24.904Z,91.50
2019-05-12T17:41:31.420Z,91.50
2019-05-12T17:44:37.338Z,91.60
2019-05-12T17:47:44.556Z,91.50
2019-05-12T17:50:50.654Z,91.70
2019-05-12T17:53:56.828Z,91.50
2019-05-12T17:57:04.021Z,91.70
2019-05-12T18:00:11.047Z,92.00
2019-05-12T18:03:21.846Z,91.90
2019-05-12T18:06:29.715Z,91.70
2019-05-12T18:09:31.445Z,91.60
2019-05-12T18:12:44.458Z,91.70
2019-05-12T18:15:44.701Z,91.60
2019-05-12T18:18:49.919Z,91.30
2019-05-12T18:22:02.796Z,91.40
2019-05-12T18:25:04.150Z,91.30
2019-05-12T18:28:11.006Z,91.30
2019-05-12T18:31:16.070Z,91.20
2019-05-12T18:34:22.308Z,91.00
2019-05-12T18:37:27.971Z,91.00
2019-05-12T18:40:34.471Z,91.00
2019-05-12T18:43:39.630Z,91.00
2019-05-12T18:46:46.626Z,90.90
2019-05-12T18:49:53.868Z,90.90
2019-05-12T18:52:58.707Z,90.90
2019-05-12T18:56:10.247Z,90.80
2019-05-12T18:59:13.693Z,90.80
2019-05-12T19:02:23.273Z,90.80
2019-05-12T19:05:30.868Z,90.70
2019-05-12T19:08:34.968Z,90.60
2019-05-12T19:11:44.323Z,90.50
2019-05-12T19:14:51.767Z,90.50
2019-05-12T19:17:55.047Z,90.50
2019-05-12T19:21:00.244Z,90.40
2019-05-12T19:24:08.592Z,90.40
2019-05-12T19:27:16.568Z,90.40
2019-05-12T19:30:25.264Z,90.30
2019-05-12T19:33:28.138Z,90.30
2019-05-12T19:36:35.922Z,90.30
2019-05-12T19:39:46.101Z,90.20
2019-05-12T19:42:53.738Z,90.20
2019-05-12T19:46:02.963Z,89.90
2019-05-12T19:49:04.517Z,89.80
2019-05-12T19:52:09.554Z,89.90
2019-05-12T19:55:15.532Z,89.80
2019-05-12T19:58:23.615Z,89.70
2019-05-12T20:01:32.802Z,89.60
2019-05-12T20:04:42.066Z,89.40
2019-05-12T20:07:44.374Z,89.40
2019-05-12T20:10:49.614Z,89.40
2019-05-12T20:13:54.317Z,89.30
2019-05-12T20:16:58.907Z,89.40
2019-05-12T20:20:04.759Z,89.30
2019-05-12T20:23:10.762Z,89.30
2019-05-12T20:26:15.297Z,89.10
2019-05-12T20:29:24.561Z,89.30
2019-05-12T20:32:28.928Z,89.10
2019-05-12T20:35:33.958Z,89.30
2019-05-12T20:38:41.074Z,89.00
2019-05-12T20:41:46.069Z,89.00
2019-05-12T20:44:57.932Z,88.80
2019-05-12T20:47:58.578Z,88.80
2019-05-12T20:51:03.694Z,88.80
2019-05-12T20:54:14.118Z,88.80
2019-05-12T20:57:16.529Z,88.80
2019-05-12T21:00:21.038Z,88.70
2019-05-12T21:03:25.609Z,88.40
2019-05-12T21:06:33.126Z,88.30
2019-05-12T21:09:36.228Z,88.40
2019-05-12T21:12:46.159Z,88.50
2019-05-12T21:15:47.057Z,88.50
2019-05-12T21:19:02.109Z,88.40
2019-05-12T21:21:59.191Z,88.20
2019-05-12T21:25:04.283Z,88.30
2019-05-12T21:28:08.707Z,88.30
2019-05-12T21:31:15.229Z,88.30
2019-05-12T21:34:21.567Z,88.40
2019-05-12T21:37:25.813Z,88.30
2019-05-12T21:40:31.937Z,88.40
2019-05-12T21:43:36.530Z,88.60
2019-05-12T21:46:47.406Z,88.60
2019-05-12T21:49:48.630Z,88.50
2019-05-12T21:52:59.362Z,88.60
2019-05-12T21:56:04.294Z,88.90
2019-05-12T21:59:07.999Z,88.80
2019-05-12T22:02:14.673Z,88.80
2019-05-12T22:05:23.651Z,88.80
2019-05-12T22:08:27.237Z,89.00
2019-05-12T22:11:34.385Z,88.90
2019-05-12T22:14:40.785Z,88.90
2019-05-12T22:18:04.744Z,88.80
2019-05-12T22:21:08.736Z,88.90
2019-05-12T22:24:14.627Z,89.00
2019-05-12T22:27:22.887Z,89.10
2019-05-12T22:30:27.116Z,89.30
2019-05-12T22:33:33.407Z,89.50
2019-05-12T22:36:37.607Z,89.40
2019-05-12T22:39:44.400Z,89.50
2019-05-12T22:42:50.694Z,89.50
2019-05-12T22:45:55.507Z,89.60
2019-05-12T22:48:59.847Z,89.50
2019-05-12T22:52:07.259Z,89.50
2019-05-12T22:55:14.009Z,89.60
2019-05-12T22:58:22.479Z,89.60
2019-05-12T23:01:25.202Z,89.60
2019-05-12T23:04:35.667Z,89.60
2019-05-12T23:07:36.196Z,89.60
2019-05-12T23:10:41.496Z,89.70
2019-05-12T23:13:47.341Z,89.70
2019-05-12T23:16:54.371Z,89.60
2019-05-12T23:19:58.519Z,89.70
2019-05-12T23:23:08.867Z,89.90
2019-05-12T23:26:10.956Z,89.70
2019-05-12T23:29:20.318Z,89.60
2019-05-12T23:32:24.056Z,89.50
2019-05-12T23:35:28.383Z,89.40
2019-05-12T23:38:34.848Z,89.40
2019-05-12T23:41:39.995Z,89.60
2019-05-12T23:44:44.997Z,89.70
2019-05-12T23:47:49.471Z,89.40
2019-05-12T23:50:54.329Z,89.60
2019-05-12T23:54:00.296Z,89.30
2019-05-12T23:57:05.360Z,89.30
